sensor_id;sensor_type;location;lat;lon;timestamp;pressure;altitude;pressure_sealevel;temperature;humidity
18201;BME280;9226;47.858;9.594;2023-12-22T00:01:55;94047.91;;;7.54;91.39
18201;BME280;9226;47.858;9.594;2023-12-22T00:04:21;94051.66;;;7.61;91.39
18201;BME280;9226;47.858;9.594;2023-12-22T00:06:48;94048.34;;;7.49;93.32
18201;BME280;9226;47.858;9.594;2023-12-22T00:09:14;94032.78;;;7.56;93.47
18201;BME280;9226;47.858;9.594;2023-12-22T00:11:41;94040.25;;;7.60;93.71
18201;BME280;9226;47.858;9.594;2023-12-22T00:14:07;94036.22;;;7.66;93.58
18201;BME280;9226;47.858;9.594;2023-12-22T00:16:34;94051.66;;;7.61;94.36
18201;BME280;9226;47.858;9.594;2023-12-22T00:19:02;94064.56;;;7.74;93.43
18201;BME280;9226;47.858;9.594;2023-12-22T00:21:28;94071.66;;;7.73;93.71
18201;BME280;9226;47.858;9.594;2023-12-22T00:23:53;94085.13;;;7.60;94.78
18201;BME280;9226;47.858;9.594;2023-12-22T00:26:19;94096.91;;;7.86;93.49
18201;BME280;9226;47.858;9.594;2023-12-22T00:28:44;94088.88;;;7.77;93.82
18201;BME280;9226;47.858;9.594;2023-12-22T00:31:10;94098.03;;;7.93;92.88
18201;BME280;9226;47.858;9.594;2023-12-22T00:33:38;94086.63;;;7.92;92.63
18201;BME280;9226;47.858;9.594;2023-12-22T00:36:03;94089.28;;;7.92;92.63
18201;BME280;9226;47.858;9.594;2023-12-22T00:38:29;94089.69;;;7.97;92.02
18201;BME280;9226;47.858;9.594;2023-12-22T00:40:55;94090.22;;;8.01;91.34
18201;BME280;9226;47.858;9.594;2023-12-22T00:43:20;94080.66;;;7.90;90.24
18201;BME280;9226;47.858;9.594;2023-12-22T00:45:46;94083.56;;;7.97;89.99
18201;BME280;9226;47.858;9.594;2023-12-22T00:48:11;94090.53;;;7.88;90.13
18201;BME280;9226;47.858;9.594;2023-12-22T00:50:36;94093.00;;;8.00;89.57
18201;BME280;9226;47.858;9.594;2023-12-22T00:53:02;94105.53;;;7.88;88.75
18201;BME280;9226;47.858;9.594;2023-12-22T00:55:27;94111.22;;;7.93;88.94
18201;BME280;9226;47.858;9.594;2023-12-22T00:57:52;94120.25;;;7.90;87.79
18201;BME280;9226;47.858;9.594;2023-12-22T01:00:18;94128.03;;;7.92;87.68
18201;BME280;9226;47.858;9.594;2023-12-22T01:02:43;94132.38;;;7.73;88.20
18201;BME280;9226;47.858;9.594;2023-12-22T01:05:09;94126.38;;;7.71;87.48
18201;BME280;9226;47.858;9.594;2023-12-22T01:07:35;94121.81;;;7.83;87.55
18201;BME280;9226;47.858;9.594;2023-12-22T01:10:01;94132.78;;;7.78;87.35
18201;BME280;9226;47.858;9.594;2023-12-22T01:12:30;94153.63;;;7.82;87.22
18201;BME280;9226;47.858;9.594;2023-12-22T01:14:56;94152.22;;;7.87;86.30
18201;BME280;9226;47.858;9.594;2023-12-22T01:17:22;94163.63;;;7.88;86.94
18201;BME280;9226;47.858;9.594;2023-12-22T01:19:48;94173.91;;;7.71;86.96
18201;BME280;9226;47.858;9.594;2023-12-22T01:22:13;94179.91;;;7.73;87.32
18201;BME280;9226;47.858;9.594;2023-12-22T01:24:39;94151.97;;;7.81;86.68
18201;BME280;9226;47.858;9.594;2023-12-22T01:27:08;94141.81;;;7.86;86.39
18201;BME280;9226;47.858;9.594;2023-12-22T01:29:33;94156.69;;;7.87;86.03
18201;BME280;9226;47.858;9.594;2023-12-22T01:31:59;94172.81;;;7.74;85.44
18201;BME280;9226;47.858;9.594;2023-12-22T01:34:24;94175.31;;;7.75;85.10
18201;BME280;9226;47.858;9.594;2023-12-22T01:36:50;94180.03;;;7.82;84.63
18201;BME280;9226;47.858;9.594;2023-12-22T01:39:15;94175.03;;;7.78;84.17
18201;BME280;9226;47.858;9.594;2023-12-22T01:41:41;94177.25;;;7.83;84.13
18201;BME280;9226;47.858;9.594;2023-12-22T01:44:06;94187.97;;;7.72;83.58
18201;BME280;9226;47.858;9.594;2023-12-22T01:46:32;94165.56;;;7.66;84.12
18201;BME280;9226;47.858;9.594;2023-12-22T01:49:00;94165.31;;;7.50;83.82
18201;BME280;9226;47.858;9.594;2023-12-22T01:51:28;94179.44;;;7.39;83.73
18201;BME280;9226;47.858;9.594;2023-12-22T01:53:54;94171.66;;;7.37;83.83
18201;BME280;9226;47.858;9.594;2023-12-22T01:56:20;94167.75;;;7.41;83.33
18201;BME280;9226;47.858;9.594;2023-12-22T01:58:46;94171.78;;;7.26;83.92
18201;BME280;9226;47.858;9.594;2023-12-22T02:01:13;94194.25;;;7.20;83.60
18201;BME280;9226;47.858;9.594;2023-12-22T02:03:38;94192.34;;;7.32;83.43
18201;BME280;9226;47.858;9.594;2023-12-22T02:06:05;94178.19;;;7.33;83.52
18201;BME280;9226;47.858;9.594;2023-12-22T02:08:32;94175.81;;;7.40;83.71
18201;BME280;9226;47.858;9.594;2023-12-22T02:10:58;94170.97;;;7.35;83.37
18201;BME280;9226;47.858;9.594;2023-12-22T02:13:23;94163.28;;;7.22;83.72
18201;BME280;9226;47.858;9.594;2023-12-22T02:15:54;94157.19;;;7.22;84.00
18201;BME280;9226;47.858;9.594;2023-12-22T02:18:25;94177.34;;;7.23;83.80
18201;BME280;9226;47.858;9.594;2023-12-22T02:20:52;94181.06;;;7.20;83.94
18201;BME280;9226;47.858;9.594;2023-12-22T02:23:18;94174.97;;;7.30;83.87
18201;BME280;9226;47.858;9.594;2023-12-22T02:25:44;94170.53;;;7.30;83.22
18201;BME280;9226;47.858;9.594;2023-12-22T02:28:12;94185.66;;;7.28;83.68
18201;BME280;9226;47.858;9.594;2023-12-22T02:33:28;94153.59;;;7.23;83.67
18201;BME280;9226;47.858;9.594;2023-12-22T02:35:58;94158.16;;;7.21;83.52
18201;BME280;9226;47.858;9.594;2023-12-22T02:38:28;94160.22;;;7.17;84.44
18201;BME280;9226;47.858;9.594;2023-12-22T02:40:55;94161.91;;;7.18;84.17
18201;BME280;9226;47.858;9.594;2023-12-22T02:43:21;94164.00;;;7.15;84.08
18201;BME280;9226;47.858;9.594;2023-12-22T02:45:50;94170.91;;;7.06;84.51
18201;BME280;9226;47.858;9.594;2023-12-22T02:48:16;94176.88;;;7.18;84.43
18201;BME280;9226;47.858;9.594;2023-12-22T02:50:41;94182.47;;;7.15;84.55
18201;BME280;9226;47.858;9.594;2023-12-22T02:53:07;94183.56;;;7.22;83.67
18201;BME280;9226;47.858;9.594;2023-12-22T02:55:32;94193.84;;;7.25;83.17
18201;BME280;9226;47.858;9.594;2023-12-22T02:57:58;94198.84;;;7.28;83.06
18201;BME280;9226;47.858;9.594;2023-12-22T03:00:24;94189.38;;;7.16;82.14
18201;BME280;9226;47.858;9.594;2023-12-22T03:02:50;94202.16;;;7.20;82.58
18201;BME280;9226;47.858;9.594;2023-12-22T03:05:15;94192.31;;;7.22;82.20
18201;BME280;9226;47.858;9.594;2023-12-22T03:07:40;94203.00;;;7.21;82.48
18201;BME280;9226;47.858;9.594;2023-12-22T03:10:06;94206.63;;;7.20;82.59
18201;BME280;9226;47.858;9.594;2023-12-22T03:12:31;94222.22;;;7.02;83.32
18201;BME280;9226;47.858;9.594;2023-12-22T03:14:57;94230.75;;;7.15;83.26
18201;BME280;9226;47.858;9.594;2023-12-22T03:17:22;94237.00;;;7.24;83.43
18201;BME280;9226;47.858;9.594;2023-12-22T03:19:48;94229.28;;;7.32;83.29
18201;BME280;9226;47.858;9.594;2023-12-22T03:22:13;94243.47;;;7.41;83.23
18201;BME280;9226;47.858;9.594;2023-12-22T03:24:38;94232.19;;;7.29;82.49
18201;BME280;9226;47.858;9.594;2023-12-22T03:27:04;94235.53;;;7.31;82.21
18201;BME280;9226;47.858;9.594;2023-12-22T03:29:29;94237.38;;;7.50;82.23
18201;BME280;9226;47.858;9.594;2023-12-22T03:31:55;94240.69;;;7.42;81.97
18201;BME280;9226;47.858;9.594;2023-12-22T03:34:20;94221.78;;;7.37;81.46
18201;BME280;9226;47.858;9.594;2023-12-22T03:36:46;94217.91;;;7.41;81.12
18201;BME280;9226;47.858;9.594;2023-12-22T03:39:17;94214.00;;;7.36;81.08
18201;BME280;9226;47.858;9.594;2023-12-22T03:41:42;94200.84;;;7.46;81.41
18201;BME280;9226;47.858;9.594;2023-12-22T03:44:08;94214.03;;;7.46;80.80
18201;BME280;9226;47.858;9.594;2023-12-22T03:46:33;94221.41;;;7.42;80.51
18201;BME280;9226;47.858;9.594;2023-12-22T03:48:59;94213.59;;;7.31;80.41
18201;BME280;9226;47.858;9.594;2023-12-22T03:51:24;94216.91;;;7.33;80.39
18201;BME280;9226;47.858;9.594;2023-12-22T03:53:50;94224.81;;;7.23;80.00
18201;BME280;9226;47.858;9.594;2023-12-22T03:56:15;94223.41;;;7.19;79.43
18201;BME280;9226;47.858;9.594;2023-12-22T03:58:40;94247.00;;;7.20;79.65
18201;BME280;9226;47.858;9.594;2023-12-22T04:01:06;94240.81;;;7.31;79.50
18201;BME280;9226;47.858;9.594;2023-12-22T04:03:34;94241.75;;;7.30;78.66
18201;BME280;9226;47.858;9.594;2023-12-22T04:06:05;94228.13;;;7.15;77.99
18201;BME280;9226;47.858;9.594;2023-12-22T04:08:31;94220.59;;;7.11;78.17
18201;BME280;9226;47.858;9.594;2023-12-22T04:10:56;94218.19;;;6.98;77.33
18201;BME280;9226;47.858;9.594;2023-12-22T04:13:22;94224.16;;;7.00;77.44
18201;BME280;9226;47.858;9.594;2023-12-22T04:15:47;94223.59;;;6.96;76.92
18201;BME280;9226;47.858;9.594;2023-12-22T04:18:12;94230.75;;;6.84;77.37
18201;BME280;9226;47.858;9.594;2023-12-22T04:20:38;94231.16;;;6.80;76.11
18201;BME280;9226;47.858;9.594;2023-12-22T04:23:03;94222.00;;;6.74;76.63
18201;BME280;9226;47.858;9.594;2023-12-22T04:25:28;94232.78;;;6.71;77.05
18201;BME280;9226;47.858;9.594;2023-12-22T04:27:54;94220.31;;;6.73;76.70
18201;BME280;9226;47.858;9.594;2023-12-22T04:30:19;94221.16;;;6.74;76.78
18201;BME280;9226;47.858;9.594;2023-12-22T04:32:45;94227.56;;;6.81;76.66
18201;BME280;9226;47.858;9.594;2023-12-22T04:35:10;94246.19;;;6.89;76.51
18201;BME280;9226;47.858;9.594;2023-12-22T04:37:36;94235.34;;;6.82;76.37
18201;BME280;9226;47.858;9.594;2023-12-22T04:40:01;94234.25;;;6.85;76.49
18201;BME280;9226;47.858;9.594;2023-12-22T04:42:28;94241.69;;;6.80;76.06
18201;BME280;9226;47.858;9.594;2023-12-22T04:44:54;94237.66;;;6.76;76.23
18201;BME280;9226;47.858;9.594;2023-12-22T04:47:19;94254.97;;;6.68;76.08
18201;BME280;9226;47.858;9.594;2023-12-22T04:49:45;94238.88;;;6.72;76.17
18201;BME280;9226;47.858;9.594;2023-12-22T04:52:11;94250.72;;;6.77;76.60
18201;BME280;9226;47.858;9.594;2023-12-22T04:54:37;94266.41;;;6.79;76.50
18201;BME280;9226;47.858;9.594;2023-12-22T04:57:03;94257.84;;;6.86;76.41
18201;BME280;9226;47.858;9.594;2023-12-22T04:59:29;94250.91;;;6.85;76.71
18201;BME280;9226;47.858;9.594;2023-12-22T05:01:54;94263.56;;;6.92;76.64
18201;BME280;9226;47.858;9.594;2023-12-22T05:04:19;94280.47;;;6.89;76.67
18201;BME280;9226;47.858;9.594;2023-12-22T05:06:45;94290.19;;;6.88;76.50
18201;BME280;9226;47.858;9.594;2023-12-22T05:09:11;94257.72;;;6.88;76.21
18201;BME280;9226;47.858;9.594;2023-12-22T05:11:37;94252.63;;;6.96;75.56
18201;BME280;9226;47.858;9.594;2023-12-22T05:14:03;94242.84;;;6.87;75.53
18201;BME280;9226;47.858;9.594;2023-12-22T05:16:28;94244.78;;;6.85;75.82
18201;BME280;9226;47.858;9.594;2023-12-22T05:18:56;94248.66;;;6.81;75.62
18201;BME280;9226;47.858;9.594;2023-12-22T05:21:23;94255.91;;;6.88;75.04
18201;BME280;9226;47.858;9.594;2023-12-22T05:23:48;94270.09;;;6.97;75.03
18201;BME280;9226;47.858;9.594;2023-12-22T05:26:18;94264.63;;;6.89;75.29
18201;BME280;9226;47.858;9.594;2023-12-22T05:28:43;94271.34;;;6.93;74.90
18201;BME280;9226;47.858;9.594;2023-12-22T05:31:09;94275.91;;;6.91;74.95
18201;BME280;9226;47.858;9.594;2023-12-22T05:33:35;94269.53;;;6.94;74.53
18201;BME280;9226;47.858;9.594;2023-12-22T05:36:00;94277.69;;;6.91;74.68
18201;BME280;9226;47.858;9.594;2023-12-22T05:38:25;94294.53;;;6.99;74.62
18201;BME280;9226;47.858;9.594;2023-12-22T05:40:51;94298.69;;;7.02;74.52
18201;BME280;9226;47.858;9.594;2023-12-22T05:43:16;94313.00;;;6.99;74.43
18201;BME280;9226;47.858;9.594;2023-12-22T05:45:42;94303.03;;;7.03;74.43
18201;BME280;9226;47.858;9.594;2023-12-22T05:48:07;94317.84;;;6.94;75.15
18201;BME280;9226;47.858;9.594;2023-12-22T05:50:33;94334.09;;;6.99;75.56
18201;BME280;9226;47.858;9.594;2023-12-22T05:52:58;94345.03;;;6.95;76.01
18201;BME280;9226;47.858;9.594;2023-12-22T05:55:24;94342.00;;;6.99;76.07
18201;BME280;9226;47.858;9.594;2023-12-22T05:57:49;94338.84;;;7.05;76.24
18201;BME280;9226;47.858;9.594;2023-12-22T06:00:15;94346.16;;;7.02;76.28
18201;BME280;9226;47.858;9.594;2023-12-22T06:02:42;94348.50;;;6.95;76.02
18201;BME280;9226;47.858;9.594;2023-12-22T06:05:07;94333.19;;;6.89;76.21
18201;BME280;9226;47.858;9.594;2023-12-22T06:07:33;94326.44;;;6.96;76.28
18201;BME280;9226;47.858;9.594;2023-12-22T06:09:58;94332.53;;;6.97;76.24
18201;BME280;9226;47.858;9.594;2023-12-22T06:12:24;94324.41;;;7.10;76.33
18201;BME280;9226;47.858;9.594;2023-12-22T06:14:49;94334.66;;;7.03;75.68
18201;BME280;9226;47.858;9.594;2023-12-22T06:17:14;94346.75;;;7.05;75.72
18201;BME280;9226;47.858;9.594;2023-12-22T06:19:40;94351.19;;;7.05;75.62
18201;BME280;9226;47.858;9.594;2023-12-22T06:22:05;94354.22;;;7.00;75.65
18201;BME280;9226;47.858;9.594;2023-12-22T06:24:31;94361.41;;;6.98;75.93
18201;BME280;9226;47.858;9.594;2023-12-22T06:26:56;94349.19;;;6.97;75.97
18201;BME280;9226;47.858;9.594;2023-12-22T06:29:22;94362.25;;;6.99;76.34
18201;BME280;9226;47.858;9.594;2023-12-22T06:31:48;94363.81;;;7.01;75.93
18201;BME280;9226;47.858;9.594;2023-12-22T06:34:17;94359.47;;;7.00;76.13
18201;BME280;9226;47.858;9.594;2023-12-22T06:36:42;94359.94;;;7.05;75.90
18201;BME280;9226;47.858;9.594;2023-12-22T06:39:08;94356.66;;;6.92;75.79
18201;BME280;9226;47.858;9.594;2023-12-22T06:41:34;94366.19;;;7.04;75.45
18201;BME280;9226;47.858;9.594;2023-12-22T06:43:59;94368.13;;;7.02;75.76
18201;BME280;9226;47.858;9.594;2023-12-22T06:46:25;94360.34;;;7.01;75.52
18201;BME280;9226;47.858;9.594;2023-12-22T06:48:51;94365.66;;;7.11;75.09
18201;BME280;9226;47.858;9.594;2023-12-22T06:51:28;94364.69;;;6.91;75.50
18201;BME280;9226;47.858;9.594;2023-12-22T06:53:57;94370.84;;;6.91;75.75
18201;BME280;9226;47.858;9.594;2023-12-22T06:56:26;94366.50;;;6.90;76.09
18201;BME280;9226;47.858;9.594;2023-12-22T06:58:54;94367.72;;;6.86;76.20
18201;BME280;9226;47.858;9.594;2023-12-22T07:01:23;94368.63;;;6.96;76.72
18201;BME280;9226;47.858;9.594;2023-12-22T07:03:49;94395.19;;;7.04;76.57
18201;BME280;9226;47.858;9.594;2023-12-22T07:06:15;94389.84;;;6.95;77.42
18201;BME280;9226;47.858;9.594;2023-12-22T07:08:42;94394.16;;;6.96;77.95
18201;BME280;9226;47.858;9.594;2023-12-22T07:11:09;94407.50;;;6.94;78.14
18201;BME280;9226;47.858;9.594;2023-12-22T07:13:34;94403.69;;;6.87;78.79
18201;BME280;9226;47.858;9.594;2023-12-22T07:16:00;94398.59;;;6.95;78.78
18201;BME280;9226;47.858;9.594;2023-12-22T07:18:27;94400.34;;;6.85;79.15
18201;BME280;9226;47.858;9.594;2023-12-22T07:20:58;94410.50;;;7.11;78.45
18201;BME280;9226;47.858;9.594;2023-12-22T07:23:24;94401.69;;;7.00;78.54
18201;BME280;9226;47.858;9.594;2023-12-22T07:25:50;94417.88;;;6.96;78.72
18201;BME280;9226;47.858;9.594;2023-12-22T07:28:15;94420.38;;;6.97;78.81
18201;BME280;9226;47.858;9.594;2023-12-22T07:30:41;94415.84;;;6.99;78.78
18201;BME280;9226;47.858;9.594;2023-12-22T07:33:07;94418.03;;;6.94;78.59
18201;BME280;9226;47.858;9.594;2023-12-22T07:35:33;94416.59;;;6.90;78.78
18201;BME280;9226;47.858;9.594;2023-12-22T07:37:59;94426.91;;;6.93;78.92
18201;BME280;9226;47.858;9.594;2023-12-22T07:40:25;94413.78;;;7.03;78.59
18201;BME280;9226;47.858;9.594;2023-12-22T07:42:50;94414.94;;;7.10;78.07
18201;BME280;9226;47.858;9.594;2023-12-22T07:45:16;94399.50;;;7.05;77.97
18201;BME280;9226;47.858;9.594;2023-12-22T07:47:41;94418.66;;;7.07;77.94
18201;BME280;9226;47.858;9.594;2023-12-22T07:50:07;94404.78;;;7.05;77.89
18201;BME280;9226;47.858;9.594;2023-12-22T07:52:34;94407.34;;;6.96;78.40
18201;BME280;9226;47.858;9.594;2023-12-22T07:55:07;94415.91;;;7.09;77.97
18201;BME280;9226;47.858;9.594;2023-12-22T07:57:34;94424.13;;;7.16;77.48
18201;BME280;9226;47.858;9.594;2023-12-22T08:00:00;94421.25;;;6.98;77.64
18201;BME280;9226;47.858;9.594;2023-12-22T08:02:25;94425.28;;;7.02;77.39
18201;BME280;9226;47.858;9.594;2023-12-22T08:04:51;94423.69;;;7.11;77.48
18201;BME280;9226;47.858;9.594;2023-12-22T08:07:16;94407.19;;;6.97;77.61
18201;BME280;9226;47.858;9.594;2023-12-22T08:09:42;94393.72;;;7.12;77.36
18201;BME280;9226;47.858;9.594;2023-12-22T08:12:07;94396.66;;;6.97;77.63
18201;BME280;9226;47.858;9.594;2023-12-22T08:14:33;94387.53;;;7.01;77.72
18201;BME280;9226;47.858;9.594;2023-12-22T08:16:58;94393.06;;;6.98;78.20
18201;BME280;9226;47.858;9.594;2023-12-22T08:19:24;94395.31;;;7.03;78.36
18201;BME280;9226;47.858;9.594;2023-12-22T08:21:52;94407.28;;;7.07;77.86
18201;BME280;9226;47.858;9.594;2023-12-22T08:24:17;94395.13;;;7.16;77.43
18201;BME280;9226;47.858;9.594;2023-12-22T08:26:43;94392.00;;;7.32;76.74
18201;BME280;9226;47.858;9.594;2023-12-22T08:29:08;94396.81;;;7.17;76.42
18201;BME280;9226;47.858;9.594;2023-12-22T08:31:34;94404.28;;;7.12;76.87
18201;BME280;9226;47.858;9.594;2023-12-22T08:33:59;94417.38;;;7.23;76.89
18201;BME280;9226;47.858;9.594;2023-12-22T08:36:25;94420.25;;;7.41;76.68
18201;BME280;9226;47.858;9.594;2023-12-22T08:38:50;94425.91;;;7.57;76.33
18201;BME280;9226;47.858;9.594;2023-12-22T08:41:15;94417.69;;;7.60;75.66
18201;BME280;9226;47.858;9.594;2023-12-22T08:43:41;94408.66;;;7.53;75.35
18201;BME280;9226;47.858;9.594;2023-12-22T08:46:07;94424.19;;;7.47;75.68
18201;BME280;9226;47.858;9.594;2023-12-22T08:48:35;94429.72;;;7.43;75.80
18201;BME280;9226;47.858;9.594;2023-12-22T08:51:00;94440.75;;;7.58;75.37
18201;BME280;9226;47.858;9.594;2023-12-22T08:53:25;94453.88;;;7.70;75.37
18201;BME280;9226;47.858;9.594;2023-12-22T08:55:51;94450.28;;;7.71;75.05
18201;BME280;9226;47.858;9.594;2023-12-22T08:58:19;94444.38;;;7.88;74.65
18201;BME280;9226;47.858;9.594;2023-12-22T09:00:44;94444.59;;;7.75;74.95
18201;BME280;9226;47.858;9.594;2023-12-22T09:03:10;94424.31;;;7.76;74.77
18201;BME280;9226;47.858;9.594;2023-12-22T09:05:35;94427.31;;;7.92;74.62
18201;BME280;9226;47.858;9.594;2023-12-22T09:08:00;94426.25;;;7.74;75.21
18201;BME280;9226;47.858;9.594;2023-12-22T09:10:26;94433.56;;;7.91;75.15
18201;BME280;9226;47.858;9.594;2023-12-22T09:12:51;94438.28;;;7.88;74.94
18201;BME280;9226;47.858;9.594;2023-12-22T09:15:17;94433.69;;;7.90;75.08
18201;BME280;9226;47.858;9.594;2023-12-22T09:17:42;94436.66;;;8.06;74.76
18201;BME280;9226;47.858;9.594;2023-12-22T09:20:08;94443.03;;;7.94;74.63
18201;BME280;9226;47.858;9.594;2023-12-22T09:22:34;94421.03;;;7.93;74.79
18201;BME280;9226;47.858;9.594;2023-12-22T09:24:59;94432.13;;;7.87;75.33
18201;BME280;9226;47.858;9.594;2023-12-22T09:27:25;94449.03;;;8.06;75.10
18201;BME280;9226;47.858;9.594;2023-12-22T09:29:55;94449.44;;;8.01;74.46
18201;BME280;9226;47.858;9.594;2023-12-22T09:32:20;94452.69;;;8.14;74.37
18201;BME280;9226;47.858;9.594;2023-12-22T09:34:46;94454.19;;;8.07;74.80
18201;BME280;9226;47.858;9.594;2023-12-22T09:37:11;94454.19;;;8.07;74.03
18201;BME280;9226;47.858;9.594;2023-12-22T09:39:37;94464.75;;;8.07;74.70
18201;BME280;9226;47.858;9.594;2023-12-22T09:42:02;94452.56;;;7.85;74.73
18201;BME280;9226;47.858;9.594;2023-12-22T09:44:32;94459.81;;;7.93;75.08
18201;BME280;9226;47.858;9.594;2023-12-22T09:46:59;94474.88;;;8.02;74.53
18201;BME280;9226;47.858;9.594;2023-12-22T09:49:26;94470.47;;;8.12;74.59
18201;BME280;9226;47.858;9.594;2023-12-22T09:51:53;94482.56;;;8.15;74.45
18201;BME280;9226;47.858;9.594;2023-12-22T09:54:19;94467.81;;;8.12;74.46
18201;BME280;9226;47.858;9.594;2023-12-22T09:56:45;94468.28;;;8.27;74.21
18201;BME280;9226;47.858;9.594;2023-12-22T09:59:12;94469.63;;;8.12;74.49
18201;BME280;9226;47.858;9.594;2023-12-22T10:01:45;94465.50;;;8.19;74.23
18201;BME280;9226;47.858;9.594;2023-12-22T10:04:13;94455.34;;;8.14;74.43
18201;BME280;9226;47.858;9.594;2023-12-22T10:06:39;94457.13;;;8.14;74.81
18201;BME280;9226;47.858;9.594;2023-12-22T10:09:05;94451.44;;;8.19;74.56
18201;BME280;9226;47.858;9.594;2023-12-22T10:11:34;94438.81;;;8.32;74.32
18201;BME280;9226;47.858;9.594;2023-12-22T10:14:02;94434.78;;;8.28;74.54
18201;BME280;9226;47.858;9.594;2023-12-22T10:16:30;94428.53;;;8.29;75.32
18201;BME280;9226;47.858;9.594;2023-12-22T10:18:55;94444.03;;;8.12;75.21
18201;BME280;9226;47.858;9.594;2023-12-22T10:21:21;94449.59;;;8.09;75.22
18201;BME280;9226;47.858;9.594;2023-12-22T10:23:46;94435.72;;;8.27;74.75
18201;BME280;9226;47.858;9.594;2023-12-22T10:26:12;94442.03;;;8.36;74.83
18201;BME280;9226;47.858;9.594;2023-12-22T10:28:38;94425.03;;;8.28;74.70
18201;BME280;9226;47.858;9.594;2023-12-22T10:31:03;94442.84;;;8.36;74.46
18201;BME280;9226;47.858;9.594;2023-12-22T10:33:33;94446.13;;;8.49;74.26
18201;BME280;9226;47.858;9.594;2023-12-22T10:35:59;94442.31;;;8.42;73.61
18201;BME280;9226;47.858;9.594;2023-12-22T10:38:26;94429.84;;;8.54;73.78
18201;BME280;9226;47.858;9.594;2023-12-22T10:40:52;94442.09;;;8.65;73.37
18201;BME280;9226;47.858;9.594;2023-12-22T10:43:18;94435.69;;;8.58;73.24
18201;BME280;9226;47.858;9.594;2023-12-22T10:45:44;94438.47;;;8.56;73.56
18201;BME280;9226;47.858;9.594;2023-12-22T10:48:10;94445.72;;;8.74;73.16
18201;BME280;9226;47.858;9.594;2023-12-22T10:50:35;94450.75;;;8.67;72.98
18201;BME280;9226;47.858;9.594;2023-12-22T10:53:01;94449.31;;;8.53;72.93
18201;BME280;9226;47.858;9.594;2023-12-22T10:55:26;94438.19;;;8.49;73.29
18201;BME280;9226;47.858;9.594;2023-12-22T10:57:53;94430.94;;;8.51;73.68
18201;BME280;9226;47.858;9.594;2023-12-22T11:00:20;94423.28;;;8.48;73.87
18201;BME280;9226;47.858;9.594;2023-12-22T11:02:49;94423.81;;;8.42;73.83
18201;BME280;9226;47.858;9.594;2023-12-22T11:05:18;94426.22;;;8.45;74.41
18201;BME280;9226;47.858;9.594;2023-12-22T11:07:49;94426.22;;;8.55;73.77
18201;BME280;9226;47.858;9.594;2023-12-22T11:10:19;94408.13;;;8.50;74.16
18201;BME280;9226;47.858;9.594;2023-12-22T11:12:47;94417.72;;;8.51;74.21
18201;BME280;9226;47.858;9.594;2023-12-22T11:15:13;94416.69;;;8.43;74.75
18201;BME280;9226;47.858;9.594;2023-12-22T11:17:42;94415.38;;;8.58;74.47
18201;BME280;9226;47.858;9.594;2023-12-22T11:20:12;94416.38;;;8.57;74.45
18201;BME280;9226;47.858;9.594;2023-12-22T11:22:38;94418.66;;;8.41;75.15
18201;BME280;9226;47.858;9.594;2023-12-22T11:25:08;94407.41;;;8.39;75.55
18201;BME280;9226;47.858;9.594;2023-12-22T11:27:34;94401.28;;;8.38;75.70
18201;BME280;9226;47.858;9.594;2023-12-22T11:30:01;94387.91;;;8.30;76.07
18201;BME280;9226;47.858;9.594;2023-12-22T11:32:28;94402.41;;;8.45;75.88
18201;BME280;9226;47.858;9.594;2023-12-22T11:34:54;94396.69;;;8.40;75.67
18201;BME280;9226;47.858;9.594;2023-12-22T11:37:21;94394.72;;;8.42;75.32
18201;BME280;9226;47.858;9.594;2023-12-22T11:39:47;94399.19;;;8.42;75.54
18201;BME280;9226;47.858;9.594;2023-12-22T11:42:22;94380.69;;;8.32;75.82
18201;BME280;9226;47.858;9.594;2023-12-22T11:44:48;94400.56;;;8.36;75.62
18201;BME280;9226;47.858;9.594;2023-12-22T11:47:14;94393.59;;;8.25;76.69
18201;BME280;9226;47.858;9.594;2023-12-22T11:49:40;94383.59;;;8.39;76.55
18201;BME280;9226;47.858;9.594;2023-12-22T11:52:13;94381.09;;;8.27;77.30
18201;BME280;9226;47.858;9.594;2023-12-22T11:54:52;94369.91;;;8.04;78.61
18201;BME280;9226;47.858;9.594;2023-12-22T12:00:03;94355.88;;;7.94;79.82
18201;BME280;9226;47.858;9.594;2023-12-22T12:02:33;94354.34;;;8.01;80.20
18201;BME280;9226;47.858;9.594;2023-12-22T12:05:00;94345.75;;;8.19;79.29
18201;BME280;9226;47.858;9.594;2023-12-22T12:07:42;94350.03;;;8.00;79.91
18201;BME280;9226;47.858;9.594;2023-12-22T12:10:13;94348.66;;;8.15;79.80
18201;BME280;9226;47.858;9.594;2023-12-22T12:12:39;94347.56;;;8.08;79.96
18201;BME280;9226;47.858;9.594;2023-12-22T12:15:12;94334.22;;;8.20;79.53
18201;BME280;9226;47.858;9.594;2023-12-22T12:17:39;94333.41;;;8.19;80.00
18201;BME280;9226;47.858;9.594;2023-12-22T12:20:07;94327.25;;;8.19;79.75
18201;BME280;9226;47.858;9.594;2023-12-22T12:22:33;94325.75;;;8.16;79.99
18201;BME280;9226;47.858;9.594;2023-12-22T12:24:59;94325.88;;;8.14;80.19
18201;BME280;9226;47.858;9.594;2023-12-22T12:27:26;94330.47;;;8.32;79.79
18201;BME280;9226;47.858;9.594;2023-12-22T12:29:52;94320.88;;;8.31;79.95
18201;BME280;9226;47.858;9.594;2023-12-22T12:32:18;94299.59;;;8.23;79.31
18201;BME280;9226;47.858;9.594;2023-12-22T12:34:43;94311.25;;;8.20;80.43
18201;BME280;9226;47.858;9.594;2023-12-22T12:37:09;94314.03;;;8.19;80.95
18201;BME280;9226;47.858;9.594;2023-12-22T12:39:35;94316.00;;;8.17;81.58
18201;BME280;9226;47.858;9.594;2023-12-22T12:42:06;94293.91;;;8.18;81.65
18201;BME280;9226;47.858;9.594;2023-12-22T12:44:33;94310.16;;;8.23;81.63
18201;BME280;9226;47.858;9.594;2023-12-22T12:47:19;94309.47;;;8.30;81.39
18201;BME280;9226;47.858;9.594;2023-12-22T12:49:45;94306.69;;;8.32;81.45
18201;BME280;9226;47.858;9.594;2023-12-22T12:52:13;94299.31;;;8.36;81.42
18201;BME280;9226;47.858;9.594;2023-12-22T12:54:39;94296.69;;;8.26;81.94
18201;BME280;9226;47.858;9.594;2023-12-22T12:57:05;94287.78;;;8.37;80.91
18201;BME280;9226;47.858;9.594;2023-12-22T12:59:30;94290.59;;;8.45;80.90
18201;BME280;9226;47.858;9.594;2023-12-22T13:01:56;94293.75;;;8.39;80.89
18201;BME280;9226;47.858;9.594;2023-12-22T13:04:23;94305.44;;;8.26;81.73
18201;BME280;9226;47.858;9.594;2023-12-22T13:06:49;94307.09;;;8.27;82.24
18201;BME280;9226;47.858;9.594;2023-12-22T13:09:16;94305.16;;;8.20;82.59
18201;BME280;9226;47.858;9.594;2023-12-22T13:11:42;94295.81;;;8.15;83.02
18201;BME280;9226;47.858;9.594;2023-12-22T13:14:12;94303.19;;;8.22;83.18
18201;BME280;9226;47.858;9.594;2023-12-22T13:16:39;94288.34;;;8.21;83.31
18201;BME280;9226;47.858;9.594;2023-12-22T13:19:04;94288.44;;;8.09;84.19
18201;BME280;9226;47.858;9.594;2023-12-22T13:21:30;94286.78;;;7.99;84.25
18201;BME280;9226;47.858;9.594;2023-12-22T13:24:15;94278.44;;;8.03;84.75